Time;durP1;ratioP1;P1;durP2;ratioP2;P2;SDS_P1;SDS_P2;PMS_P1;PMS_P2;Temp;Humidity;BMP_temperature;BMP_pressure;BME280_temperature;BME280_humidity;BME280_pressure;Samples;Min_cycle;Max_cycle;Signal;HPM_P1;HPM_P2
2021/03/19 00:00:25;;;;;;;7.40;4.37;;;;;;;0.64;94.94;98942.50;1807963;79;21356;-79
2021/03/19 00:02:54;;;;;;;7.55;5.47;;;;;;;0.63;94.93;98944.92;1807928;79;21125;-78
2021/03/19 00:05:24;;;;;;;8.35;5.33;;;;;;;0.64;95.01;98938.98;1807832;79;21189;-78
2021/03/19 00:07:54;;;;;;;9.63;5.65;;;;;;;0.66;95.19;98943.05;1807260;78;21130;-78
2021/03/19 00:10:27;;;;;;;14.40;6.20;;;;;;;0.66;95.22;98939.53;1806937;79;21622;-79
2021/03/19 00:12:59;;;;;;;10.43;6.65;;;;;;;0.65;95.16;98942.77;1807429;79;21669;-79
2021/03/19 00:15:29;;;;;;;8.40;5.47;;;;;;;0.64;95.15;98943.03;1807894;79;21047;-78
2021/03/19 00:17:58;;;;;;;9.13;6.00;;;;;;;0.60;95.05;98941.41;1807864;78;21166;-79
2021/03/19 00:20:29;;;;;;;8.35;5.65;;;;;;;0.56;95.23;98941.69;1806847;78;21174;-79
2021/03/19 00:22:57;;;;;;;10.65;6.58;;;;;;;0.54;95.44;98938.44;1806295;79;21499;-78
2021/03/19 00:25:26;;;;;;;9.15;5.78;;;;;;;0.54;95.61;98934.92;1806172;79;21161;-80
2021/03/19 00:27:54;;;;;;;10.13;5.22;;;;;;;0.57;95.72;98935.75;1806193;78;21130;-80
2021/03/19 00:30:22;;;;;;;10.38;5.87;;;;;;;0.58;95.63;98924.64;1777082;79;21617;-79
2021/03/19 00:32:50;;;;;;;10.55;6.03;;;;;;;0.56;95.52;98929.53;1806256;79;21044;-79
2021/03/19 00:35:18;;;;;;;18.00;8.20;;;;;;;0.56;95.77;98932.23;1806177;79;21135;-79
2021/03/19 00:37:46;;;;;;;14.13;6.78;;;;;;;0.57;95.82;98926.30;1806039;79;21806;-79
2021/03/19 00:40:14;;;;;;;17.10;7.85;;;;;;;0.58;95.67;98925.19;1806070;79;21179;-77
2021/03/19 00:42:43;;;;;;;11.25;6.15;;;;;;;0.54;95.46;98930.88;1776708;79;21597;-77
2021/03/19 00:45:13;;;;;;;9.05;6.10;;;;;;;0.54;95.59;98929.52;1805485;79;21111;-77
2021/03/19 00:47:42;;;;;;;;;;;;;;;0.52;95.64;98924.39;1807266;79;21567;-79
2021/03/19 00:50:13;;;;;;;10.23;6.70;;;;;;;0.55;95.80;98934.66;1805738;79;22361;-79
2021/03/19 00:52:41;;;;;;;24.37;7.62;;;;;;;0.55;95.67;98927.91;1805559;79;21237;-79
2021/03/19 00:55:11;;;;;;;19.35;6.33;;;;;;;0.52;95.49;98925.73;1807285;79;20932;-81
2021/03/19 00:57:38;;;;;;;9.18;5.97;;;;;;;0.52;95.53;98929.79;1807307;78;20924;-81
2021/03/19 01:00:08;;;;;;;8.93;5.05;;;;;;;0.54;95.66;98926.29;1807262;79;21154;-81
2021/03/19 01:02:36;;;;;;;9.45;5.87;;;;;;;0.56;95.83;98924.13;1807560;79;22127;-81
2021/03/19 01:05:11;;;;;;;8.28;5.12;;;;;;;0.57;95.63;98927.11;1807258;79;21138;-81
2021/03/19 01:07:39;;;;;;;6.37;4.87;;;;;;;0.55;95.46;98925.75;1813313;78;22313;-81
2021/03/19 01:10:10;;;;;;;7.47;5.05;;;;;;;0.50;95.31;98932.48;1829233;78;21115;-81
2021/03/19 01:12:37;;;;;;;8.55;5.42;;;;;;;0.45;95.33;98930.58;1829000;77;20984;-81
2021/03/19 01:15:08;;;;;;;6.92;5.62;;;;;;;0.45;95.56;98928.41;1829235;78;21155;-81
2021/03/19 01:17:36;;;;;;;9.28;5.45;;;;;;;0.46;95.67;98925.45;1829184;78;21162;-81
2021/03/19 01:20:07;;;;;;;13.28;6.10;;;;;;;0.49;95.65;98929.51;1829286;78;21012;-80
2021/03/19 01:22:34;;;;;;;12.70;6.97;;;;;;;0.47;95.47;98924.38;1829187;78;21114;-79
2021/03/19 01:25:06;;;;;;;12.37;6.92;;;;;;;0.47;95.52;98921.67;1829174;78;21135;-80
2021/03/19 01:27:33;;;;;;;18.20;9.88;;;;;;;0.48;95.50;98927.88;1828945;78;21473;-80
2021/03/19 01:30:01;;;;;;;16.62;8.63;;;;;;;0.48;95.42;98925.19;1828887;78;21143;-80
2021/03/19 01:32:29;;;;;;;15.30;7.80;;;;;;;0.45;95.22;98931.11;1829171;78;21127;-78
2021/03/19 01:34:56;;;;;;;16.90;8.18;;;;;;;0.43;95.20;98925.16;1829122;78;21043;-80
2021/03/19 01:37:24;;;;;;;15.10;7.50;;;;;;;0.43;95.32;98925.16;1828972;78;21043;-79
2021/03/19 01:39:51;;;;;;;13.32;6.87;;;;;;;0.44;95.24;98929.48;1829128;78;22100;-79
2021/03/19 01:42:18;;;;;;;11.75;5.90;;;;;;;0.45;95.54;98931.92;1829210;78;21539;-79
2021/03/19 01:45:26;;;;;;;11.33;5.80;;;;;;;0.43;95.28;98931.38;1829163;77;21162;-81
2021/03/19 01:48:51;;;;;;;8.98;5.53;;;;;;;0.38;94.98;98927.84;1824930;78;21135;-78
2021/03/19 01:52:16;;;;;;;10.20;5.72;;;;;;;0.34;95.04;98930.26;1826238;78;21559;-78
2021/03/19 01:55:41;;;;;;;11.55;7.10;;;;;;;0.32;95.08;98932.41;1777044;78;21791;-78
2021/03/19 01:59:07;;;;;;;9.15;6.28;;;;;;;0.35;95.29;98940.52;1766954;81;21010;-80
2021/03/19 02:02:30;;;;;;;9.38;5.78;;;;;;;0.35;95.21;98943.22;1766817;81;20988;-82
2021/03/19 02:05:55;;;;;;;9.03;5.95;;;;;;;0.33;95.00;98942.14;1767072;81;21028;-82
2021/03/19 02:09:19;;;;;;;11.88;6.45;;;;;;;0.29;95.09;98949.13;1766969;81;21114;-82
2021/03/19 02:12:44;;;;;;;11.48;6.17;;;;;;;0.29;95.31;98947.78;1766995;79;21178;-80
2021/03/19 02:16:08;;;;;;;8.58;5.97;;;;;;;0.29;95.31;98952.64;1766698;80;21571;-79
2021/03/19 02:19:34;;;;;;;8.83;5.87;;;;;;;0.21;94.90;98956.38;1767112;79;21188;-80
2021/03/19 02:22:59;;;;;;;9.00;6.08;;;;;;;0.19;95.28;98958.53;1766787;79;21118;-82
2021/03/19 02:26:23;;;;;;;11.70;6.58;;;;;;;0.18;95.39;98956.91;1766909;81;21158;-82
2021/03/19 02:29:48;;;;;;;11.68;6.37;;;;;;;0.13;95.27;98959.04;1767018;80;21349;-82
2021/03/19 02:32:23;;;;;;;9.18;6.10;;;;;;;0.08;95.25;98963.06;1766938;80;21504;-81
2021/03/19 02:35:10;;;;;;;10.23;6.37;;;;;;;0.03;95.85;98958.98;1766705;81;21662;-82
2021/03/19 02:37:38;;;;;;;8.75;5.72;;;;;;;0.02;95.91;98961.94;1766808;79;21139;-82
2021/03/19 02:40:10;;;;;;;11.18;6.58;;;;;;;0.02;95.93;98961.41;1767087;79;21170;-82
2021/03/19 02:42:38;;;;;;;9.25;5.75;;;;;;;0.03;95.81;98967.08;1766922;79;22284;-83
2021/03/19 02:45:10;;;;;;;12.75;7.00;;;;;;;0.02;95.66;98961.41;1766816;79;21159;-82
2021/03/19 02:47:37;;;;;;;13.80;6.03;;;;;;;0.04;95.90;98967.89;1767043;81;20992;-82
2021/03/19 02:50:07;;;;;;;10.70;5.90;;;;;;;0.05;95.90;98966.28;1767128;81;21142;-81
2021/03/19 02:52:37;;;;;;;11.55;6.25;;;;;;;0.04;95.77;98967.89;1767852;79;21775;-81
2021/03/19 02:55:10;;;;;;;10.10;6.00;;;;;;;0.04;95.60;98971.94;1806251;79;21192;-82
2021/03/19 02:57:37;;;;;;;10.03;6.12;;;;;;;0.01;95.48;98970.58;1807307;79;21152;-83
2021/03/19 03:00:08;;;;;;;10.10;6.05;;;;;;;0.00;95.67;98972.46;1807718;78;21534;-81
2021/03/19 03:02:36;;;;;;;12.18;6.78;;;;;;;0.02;95.81;98976.78;1807851;78;21011;-79
2021/03/19 03:05:07;;;;;;;10.53;6.72;;;;;;;-0.01;95.61;98976.27;1807581;79;20999;-81
2021/03/19 03:07:34;;;;;;;11.40;6.95;;;;;;;-0.02;95.53;98981.38;1807512;79;21349;-80
2021/03/19 03:10:02;;;;;;;11.15;6.55;;;;;;;-0.06;95.37;98978.92;1807505;78;21055;-81
2021/03/19 03:12:31;;;;;;;11.88;6.75;;;;;;;-0.07;95.35;98979.19;1807681;78;21460;-81
2021/03/19 03:14:58;;;;;;;12.47;6.78;;;;;;;-0.08;95.57;98977.03;1807698;79;20889;-80
2021/03/19 03:17:25;;;;;;;11.03;6.60;;;;;;;-0.07;95.57;98983.23;1807381;79;21123;-80
2021/03/19 03:19:54;;;;;;;10.70;6.03;;;;;;;-0.07;95.51;98980.53;1807570;79;21917;-81
2021/03/19 03:22:23;;;;;;;10.20;6.72;;;;;;;-0.08;95.27;98982.96;1803700;78;21074;-81
2021/03/19 03:24:50;;;;;;;11.53;6.62;;;;;;;-0.11;95.26;98984.83;1807460;79;21047;-81
2021/03/19 03:27:18;;;;;;;13.65;6.97;;;;;;;-0.08;95.71;98981.61;1807349;78;21042;-81
2021/03/19 03:29:46;;;;;;;9.30;6.05;;;;;;;-0.10;95.46;98981.05;1807733;79;20945;-81
2021/03/19 03:32:13;;;;;;;9.65;5.70;;;;;;;-0.13;95.17;98981.04;1807455;78;21394;-85
2021/03/19 03:34:41;;;;;;;9.40;6.50;;;;;;;-0.16;95.08;98984.26;1807618;79;21043;-85
2021/03/19 03:37:08;;;;;;;12.58;6.62;;;;;;;-0.19;95.02;98984.77;1808468;78;21499;-82
2021/03/19 03:39:36;;;;;;;11.57;7.67;;;;;;;-0.20;95.05;98985.84;1807457;78;21130;-85
2021/03/19 03:42:04;;;;;;;10.50;6.92;;;;;;;-0.20;95.08;98988.55;1810332;78;20944;-85
2021/03/19 03:44:32;;;;;;;12.43;7.20;;;;;;;-0.24;94.91;98987.44;1809264;78;21257;-85
2021/03/19 03:47:00;;;;;;;13.98;7.87;;;;;;;-0.24;94.95;98991.48;1809123;79;20952;-85
2021/03/19 03:49:28;;;;;;;14.53;7.97;;;;;;;-0.26;94.93;98992.81;1808377;78;21634;-81
2021/03/19 03:51:55;;;;;;;11.12;6.95;;;;;;;-0.25;95.06;98992.55;1807448;78;21011;-81
2021/03/19 03:54:22;;;;;;;12.65;8.03;;;;;;;-0.25;95.05;98992.55;1807558;79;20980;-82
2021/03/19 03:56:50;;;;;;;12.10;7.70;;;;;;;-0.26;94.83;98997.67;1807580;78;21795;-83
2021/03/19 03:59:17;;;;;;;15.38;8.33;;;;;;;-0.27;94.72;98993.34;1807214;78;20908;-82
2021/03/19 04:01:44;;;;;;;14.33;7.25;;;;;;;-0.29;94.54;98993.33;1807619;79;21118;-80
2021/03/19 04:04:16;;;;;;;13.25;7.90;;;;;;;-0.30;94.52;98984.42;1807423;79;21146;-79
2021/03/19 04:06:44;;;;;;;20.92;8.55;;;;;;;-0.29;94.78;98987.93;1807560;79;21565;-79
2021/03/19 04:09:11;;;;;;;22.40;9.85;;;;;;;-0.30;94.71;98987.13;1807471;78;21184;-80
2021/03/19 04:11:38;;;;;;;18.15;9.00;;;;;;;-0.30;94.60;98987.66;1807356;79;21167;-80
2021/03/19 04:14:06;;;;;;;16.42;9.08;;;;;;;-0.30;94.62;98988.47;1807625;78;20940;-80
2021/03/19 04:16:34;;;;;;;15.30;8.60;;;;;;;-0.28;94.56;98989.56;1807738;79;21027;-81
2021/03/19 04:19:02;;;;;;;13.35;8.90;;;;;;;-0.25;94.69;98991.73;1807671;79;22321;-80
2021/03/19 04:21:30;;;;;;;13.15;8.05;;;;;;;-0.23;94.70;98994.45;1805995;79;21198;-81
2021/03/19 04:23:58;;;;;;;18.92;9.30;;;;;;;-0.24;94.50;98993.36;1806892;78;20921;-81
2021/03/19 04:26:33;;;;;;;19.27;10.20;;;;;;;-0.25;94.42;98988.51;1807414;79;21142;-81
2021/03/19 04:29:00;;;;;;;15.53;8.75;;;;;;;-0.23;94.45;98998.50;1807724;79;20920;-80
2021/03/19 04:31:28;;;;;;;15.90;9.90;;;;;;;-0.20;94.24;99002.56;1810487;78;21240;-78
2021/03/19 04:33:55;;;;;;;14.43;7.60;;;;;;;-0.19;94.27;98999.61;1786574;79;22352;-79
2021/03/19 04:36:46;;;;;;;15.80;8.40;;;;;;;-0.17;94.05;99000.16;1813409;79;21034;-79
2021/03/19 04:39:22;;;;;;;22.70;10.48;;;;;;;-0.16;94.03;99005.02;1813404;79;21530;-79
2021/03/19 04:41:54;;;;;;;16.05;9.90;;;;;;;-0.15;93.77;99003.42;1813356;79;21567;-80
2021/03/19 04:44:24;;;;;;;15.68;9.03;;;;;;;-0.15;93.66;98999.38;1813592;78;21185;-80
2021/03/19 04:46:52;;;;;;;14.38;8.83;;;;;;;-0.12;93.81;99000.20;1813497;79;21364;-80
2021/03/19 04:49:20;;;;;;;16.07;8.80;;;;;;;-0.09;93.92;98998.34;1813062;78;21070;-78
2021/03/19 04:51:47;;;;;;;20.43;9.08;;;;;;;-0.09;93.21;98998.88;1813412;79;20928;-79
2021/03/19 04:54:14;;;;;;;19.12;9.30;;;;;;;-0.13;93.03;98995.87;1813283;78;21570;-79
2021/03/19 04:56:43;;;;;;;14.05;9.15;;;;;;;-0.16;92.92;99005.84;1813273;79;21125;-79
2021/03/19 04:59:11;;;;;;;14.63;8.08;;;;;;;-0.17;92.95;99007.45;1813296;79;21355;-80
2021/03/19 05:01:54;;;;;;;13.40;7.30;;;;;;;-0.16;92.86;99007.19;1813402;78;21486;-81
2021/03/19 05:04:22;;;;;;;13.38;7.87;;;;;;;-0.15;92.74;99006.66;1812649;79;21154;-80
2021/03/19 05:06:53;;;;;;;14.13;8.58;;;;;;;-0.14;92.58;99000.19;1798568;78;21027;-80
2021/03/19 05:09:21;;;;;;;16.48;8.68;;;;;;;-0.15;91.97;99005.30;1785984;79;21145;-80
2021/03/19 05:11:48;;;;;;;17.23;9.45;;;;;;;-0.17;92.12;99010.95;1813625;78;22519;-80
2021/03/19 05:14:18;;;;;;;16.37;9.38;;;;;;;-0.17;92.10;99009.61;1817994;78;21148;-79
2021/03/19 05:16:45;;;;;;;15.95;8.55;;;;;;;-0.13;92.24;99010.72;1797563;79;21029;-79
2021/03/19 05:19:14;;;;;;;18.02;8.93;;;;;;;-0.08;92.18;99012.10;1797801;79;20977;-79
2021/03/19 05:21:41;;;;;;;15.72;8.33;;;;;;;-0.06;92.04;99015.36;1798077;79;21144;-80
2021/03/19 05:24:11;;;;;;;14.33;7.78;;;;;;;-0.03;92.05;99013.49;1797962;79;21192;-80
2021/03/19 05:26:40;;;;;;;14.20;8.25;;;;;;;0.02;92.14;99015.91;1797874;79;21057;-81
2021/03/19 05:29:10;;;;;;;13.05;7.55;;;;;;;0.06;92.11;99014.33;1798012;79;21052;-80
2021/03/19 05:31:40;;;;;;;12.23;7.42;;;;;;;0.09;91.73;99009.75;1796398;79;21068;-83
2021/03/19 05:34:09;;;;;;;12.33;6.97;;;;;;;0.15;91.77;99018.16;1795253;80;21049;-83
2021/03/19 05:36:36;;;;;;;17.12;7.65;;;;;;;0.21;91.50;99021.17;1795180;80;21365;-81
2021/03/19 05:39:06;;;;;;;14.95;8.80;;;;;;;0.25;91.26;99016.88;1796070;80;21575;-79
2021/03/19 05:41:36;;;;;;;17.65;8.40;;;;;;;0.30;91.17;99020.42;1795215;80;21041;-79
2021/03/19 05:44:16;;;;;;;12.43;7.75;;;;;;;0.34;90.75;99022.06;1795066;80;20998;-79
2021/03/19 05:46:52;;;;;;;12.65;7.53;;;;;;;0.37;90.32;99024.77;1777624;79;21146;-79
2021/03/19 05:49:29;;;;;;;12.23;7.83;;;;;;;0.37;89.78;99026.94;1794935;80;22163;-78
2021/03/19 05:52:02;;;;;;;11.93;7.47;;;;;;;0.38;89.86;99029.91;1794752;80;20966;-77
2021/03/19 05:54:41;;;;;;;13.70;7.50;;;;;;;0.40;89.64;99032.35;1773892;79;21039;-78
2021/03/19 05:57:30;;;;;;;16.67;8.18;;;;;;;0.36;88.98;99033.95;1767096;79;21476;-77
2021/03/19 06:00:00;;;;;;;15.65;8.23;;;;;;;0.34;89.40;99032.86;1767132;81;21059;-77
2021/03/19 06:02:38;;;;;;;14.38;8.85;;;;;;;0.38;89.48;99028.56;1767329;81;21203;-73
2021/03/19 06:05:20;;;;;;;12.30;7.45;;;;;;;0.44;89.54;99040.20;1767011;80;21169;-76
2021/03/19 06:08:02;;;;;;;12.43;7.72;;;;;;;0.47;89.37;99037.80;1766199;80;21119;-78
2021/03/19 06:10:40;;;;;;;14.23;7.67;;;;;;;0.45;88.65;99042.64;1806135;79;21550;-73
2021/03/19 06:13:25;;;;;;;12.65;7.28;;;;;;;0.41;88.68;99048.83;1776511;79;21150;-75
2021/03/19 06:15:57;;;;;;;14.07;7.58;;;;;;;0.37;88.64;99047.19;1775509;79;22346;-73
2021/03/19 06:18:45;;;;;;;12.23;7.67;;;;;;;0.34;88.84;99049.06;1774292;79;21168;-75
2021/03/19 06:21:33;;;;;;;10.05;6.53;;;;;;;0.36;89.11;99054.20;1805316;79;21574;-78
2021/03/19 06:24:25;;;;;;;12.78;7.70;;;;;;;0.38;88.93;99056.10;1805322;79;21189;-78
2021/03/19 06:26:53;;;;;;;18.80;9.65;;;;;;;0.42;88.94;99055.86;1805340;79;21156;-71
2021/03/19 06:29:36;;;;;;;17.17;9.40;;;;;;;0.41;88.62;99061.80;1805322;79;21561;-70
2021/03/19 06:32:24;;;;;;;13.85;8.80;;;;;;;0.44;88.90;99061.27;1807144;79;21156;-70
2021/03/19 06:35:03;;;;;;;15.55;8.33;;;;;;;0.51;89.23;99064.55;1809746;79;20994;-74
2021/03/19 06:37:35;;;;;;;13.18;8.28;;;;;;;0.58;89.19;99069.16;1811100;79;21184;-76
2021/03/19 06:40:33;;;;;;;13.53;7.55;;;;;;;0.64;89.17;99067.30;1811057;79;21168;-71
2021/03/19 06:43:26;;;;;;;25.48;9.75;;;;;;;0.72;89.09;99065.98;1811147;79;21156;-72
2021/03/19 06:46:14;;;;;;;24.47;11.95;;;;;;;0.78;88.76;99063.05;1811227;77;21140;-81
2021/03/19 06:48:59;;;;;;;18.90;10.13;;;;;;;0.85;88.76;99070.38;1810879;79;21152;-79
2021/03/19 06:51:36;;;;;;;16.70;8.55;;;;;;;0.94;88.05;99072.03;1811002;79;21644;-76
2021/03/19 06:54:08;;;;;;;11.97;7.65;;;;;;;1.00;87.79;99076.38;1830023;77;21147;-72
2021/03/19 06:56:36;;;;;;;;;;;;;;;1.12;87.56;99076.16;1843510;77;21227;-71
2021/03/19 06:59:22;;;;;;;14.50;7.80;;;;;;;1.22;86.98;99076.97;1785270;77;21018;-72
2021/03/19 07:01:50;;;;;;;13.08;7.53;;;;;;;1.30;86.37;99074.28;1811812;78;21012;-76
2021/03/19 07:04:38;;;;;;;13.65;8.18;;;;;;;1.41;86.15;99076.48;1811912;78;21581;-73
2021/03/19 07:07:57;;;;;;;13.13;8.03;;;;;;;1.56;86.10;99076.52;1807558;77;21126;-75
2021/03/19 07:11:16;;;;;;;11.97;7.28;;;;;;;1.77;85.98;99077.33;1811498;78;21356;-76
2021/03/19 07:14:35;;;;;;;9.20;6.45;;;;;;;2.07;85.30;99073.81;1812632;78;21154;-74
2021/03/19 07:17:32;;;;;;;9.93;6.10;;;;;;;2.26;84.36;99075.70;1812841;79;21099;-73
2021/03/19 07:20:11;;;;;;;11.78;6.22;;;;;;;2.31;83.64;99072.95;1812449;79;21157;-75
2021/03/19 07:23:15;;;;;;;10.25;6.67;;;;;;;2.28;82.89;99080.30;1812777;79;21054;-71
2021/03/19 07:26:05;;;;;;;12.30;6.25;;;;;;;2.31;83.12;99073.53;1812753;79;22973;-74
2021/03/19 07:28:51;;;;;;;8.65;5.65;;;;;;;2.44;82.64;99073.48;1812143;78;21197;-73
2021/03/19 07:31:47;;;;;;;10.35;6.40;;;;;;;2.50;81.48;99081.33;1794786;79;21643;-73
2021/03/19 07:34:54;;;;;;;11.28;6.67;;;;;;;2.54;80.65;99075.62;1805341;79;21158;-73
2021/03/19 07:38:07;;;;;;;13.38;6.28;;;;;;;2.55;81.07;99079.96;1804877;78;21205;-73
2021/03/19 07:40:48;;;;;;;;;;;;;;;2.68;81.51;99079.12;1808127;79;22741;-73
2021/03/19 07:43:32;;;;;;;9.08;5.37;;;;;;;2.78;80.90;99077.20;1805090;79;20213;-74
2021/03/19 07:46:17;;;;;;;9.38;5.62;;;;;;;2.77;79.00;99078.82;1805423;79;21123;-72
2021/03/19 07:48:54;;;;;;;8.90;5.87;;;;;;;2.72;78.63;99071.52;1805254;79;21167;-73
2021/03/19 07:51:39;;;;;;;11.95;5.45;;;;;;;2.69;78.45;99071.25;1805205;78;21182;-69
2021/03/19 07:54:21;;;;;;;7.97;5.40;;;;;;;2.74;79.02;99073.41;1806146;79;21351;-70
2021/03/19 07:57:02;;;;;;;9.20;5.70;;;;;;;2.80;77.37;99075.02;1807202;79;21173;-70
2021/03/19 07:59:59;;;;;;;7.92;5.42;;;;;;;2.89;78.38;99074.69;1778345;79;21134;-71
2021/03/19 08:02:32;;;;;;;8.50;5.22;;;;;;;3.06;79.30;99075.70;1807331;79;21103;-71
2021/03/19 08:05:23;;;;;;;9.05;5.45;;;;;;;3.20;77.88;99073.20;1806747;78;21123;-72
2021/03/19 08:11:01;;;;;;;9.88;6.17;;;;;;;3.17;77.63;99079.19;1652826;85;21154;-72
2021/03/19 08:13:43;;;;;;;7.33;5.25;;;;;;;3.06;77.96;99074.89;1653168;86;21197;-72
2021/03/19 08:16:26;;;;;;;7.12;4.62;;;;;;;3.04;77.09;99076.53;1626756;88;21230;-72
2021/03/19 08:19:27;;;;;;;6.67;4.28;;;;;;;3.05;76.44;99071.92;1650297;85;21135;-72
2021/03/19 08:22:12;;;;;;;8.73;5.33;;;;;;;3.12;75.66;99077.30;1665952;85;21777;-73
2021/03/19 08:25:04;;;;;;;8.15;5.28;;;;;;;3.19;73.53;99071.58;1665904;84;21191;-73
2021/03/19 08:27:56;;;;;;;7.37;4.77;;;;;;;3.25;74.57;99072.63;1673068;84;21172;-74
2021/03/19 08:31:02;;;;;;;9.38;5.70;;;;;;;3.43;73.72;99075.25;1686787;84;21188;-74
2021/03/19 08:34:17;;;;;;;7.75;4.67;;;;;;;3.70;74.09;99077.50;1663896;85;21222;-73
2021/03/19 08:36:53;;;;;;;7.35;4.95;;;;;;;4.10;72.42;99073.64;1680896;85;22671;-70
2021/03/19 08:39:40;;;;;;;9.70;4.80;;;;;;;4.80;71.76;99074.58;1680600;85;21048;-74
2021/03/19 08:42:19;;;;;;;6.37;4.17;;;;;;;5.37;68.03;99072.77;1680903;85;21183;-72
2021/03/19 08:44:47;;;;;;;8.63;4.25;;;;;;;5.85;67.75;99069.32;1680596;85;21266;-71
2021/03/19 08:47:29;;;;;;;5.58;4.00;;;;;;;6.30;65.05;99065.08;1679234;85;21186;-71
2021/03/19 08:50:02;;;;;;;5.28;3.67;;;;;;;6.56;63.45;99070.30;1679448;85;21923;-77
2021/03/19 08:52:38;;;;;;;7.45;4.10;;;;;;;6.69;62.70;99063.80;1673810;85;21250;-73
2021/03/19 08:55:22;;;;;;;7.55;4.30;;;;;;;6.67;62.97;99071.48;1663893;85;21137;-73
2021/03/19 08:57:56;;;;;;;5.85;4.12;;;;;;;6.47;59.71;99073.47;1651338;85;21170;-74
2021/03/19 09:00:34;;;;;;;10.10;4.17;;;;;;;6.47;59.71;99073.47;1651319;86;21214;-76
2021/03/19 09:03:06;;;;;;;7.60;4.50;;;;;;;6.16;59.98;99075.94;1621734;87;21392;-74
2021/03/19 09:05:38;;;;;;;15.45;7.75;;;;;;;6.01;60.27;99076.73;1642447;86;21238;-75
2021/03/19 09:08:27;;;;;;;8.73;5.55;;;;;;;6.04;61.21;99076.14;1638384;86;21196;-74
2021/03/19 09:11:00;;;;;;;6.33;3.80;;;;;;;6.20;60.98;99078.87;1640492;86;21619;-74
2021/03/19 09:13:27;;;;;;;6.50;4.37;;;;;;;6.23;60.49;99081.00;1641116;87;21128;-73
2021/03/19 09:15:56;;;;;;;17.30;5.50;;;;;;;6.17;60.50;99084.92;1641061;87;21667;-74
2021/03/19 09:18:46;;;;;;;7.35;5.03;;;;;;;6.07;60.01;99079.63;1641009;87;21188;-74
2021/03/19 09:21:38;;;;;;;7.30;5.25;;;;;;;6.00;60.69;99081.38;1641104;87;21194;-72
2021/03/19 09:24:16;;;;;;;;;;;;;;;5.88;60.12;99088.61;1649091;86;21579;-74
2021/03/19 09:26:54;;;;;;;5.28;3.67;;;;;;;5.76;60.79;99086.91;1639251;87;20233;-73
2021/03/19 09:29:35;;;;;;;8.90;4.35;;;;;;;5.81;59.98;99084.08;1623732;88;21226;-73
2021/03/19 09:32:32;;;;;;;6.00;3.92;;;;;;;5.91;59.49;99081.23;1647361;86;21076;-73
2021/03/19 09:35:04;;;;;;;5.05;4.00;;;;;;;6.01;59.49;99087.08;1571541;91;21258;-73
2021/03/19 09:37:46;;;;;;;7.08;4.67;;;;;;;6.08;60.37;99078.53;1568346;88;21300;-72
2021/03/19 09:40:44;;;;;;;8.57;5.23;;;;;;;6.16;60.04;99086.03;1647438;86;21139;-71
2021/03/19 09:43:36;;;;;;;5.75;4.00;;;;;;;6.28;59.57;99087.73;1650638;86;21486;-73
2021/03/19 09:46:15;;;;;;;6.25;4.58;;;;;;;6.22;59.41;99088.92;1632253;86;21196;-78
2021/03/19 09:49:00;;;;;;;7.95;4.60;;;;;;;6.21;59.71;99084.03;1666904;86;21156;-74
2021/03/19 09:51:44;;;;;;;6.80;4.12;;;;;;;6.27;58.30;99083.39;1650579;87;21116;-79
2021/03/19 09:54:34;;;;;;;6.47;4.33;;;;;;;6.00;57.78;99086.82;1668797;86;21183;-77
2021/03/19 09:57:14;;;;;;;5.83;4.10;;;;;;;6.00;57.78;99086.82;1652683;86;21232;-73
2021/03/19 10:00:07;;;;;;;7.40;5.10;;;;;;;5.96;58.38;99085.24;1888684;76;22764;-73
2021/03/19 10:02:42;;;;;;;5.90;4.00;;;;;;;5.87;57.85;99091.08;1775177;80;21053;-73
2021/03/19 10:05:19;;;;;;;6.12;3.87;;;;;;;5.89;57.65;99088.08;1849998;77;21319;-74
2021/03/19 10:07:54;;;;;;;5.10;3.90;;;;;;;5.89;57.65;99088.08;1850014;77;20922;-74
2021/03/19 10:10:34;;;;;;;7.08;4.53;;;;;;;5.90;56.91;99092.43;1848995;77;21037;-74
2021/03/19 10:13:19;;;;;;;6.95;4.30;;;;;;;5.98;58.53;99085.50;1846895;77;21100;-74
2021/03/19 10:15:54;;;;;;;5.58;3.77;;;;;;;6.26;56.80;99093.48;1831832;77;20959;-74
2021/03/19 10:18:45;;;;;;;5.50;3.72;;;;;;;6.51;57.56;99094.13;1849918;77;21373;-75
2021/03/19 10:21:21;;;;;;;5.35;3.77;;;;;;;6.83;56.27;99094.64;1849780;77;20985;-74
2021/03/19 10:24:02;;;;;;;6.25;4.05;;;;;;;7.04;54.09;99083.55;1888636;76;22620;-74
2021/03/19 10:26:50;;;;;;;6.17;4.00;;;;;;;7.17;54.12;99088.76;1775332;80;20998;-74
2021/03/19 10:29:24;;;;;;;6.70;4.28;;;;;;;7.32;52.08;99087.64;1848213;77;21338;-74
2021/03/19 10:31:56;;;;;;;7.53;4.10;;;;;;;7.35;52.01;99090.56;1822269;77;21072;-73
2021/03/19 10:34:55;;;;;;;9.25;4.78;;;;;;;7.42;52.85;99084.69;1822768;77;20924;-73
2021/03/19 10:37:41;;;;;;;6.72;4.40;;;;;;;7.53;51.98;99086.06;1816693;78;21510;-73
2021/03/19 10:40:26;;;;;;;7.17;4.22;;;;;;;7.71;52.70;99083.74;1751121;80;21002;-72
2021/03/19 10:43:01;;;;;;;6.58;4.42;;;;;;;7.88;50.88;99084.45;1775401;80;21827;-73
2021/03/19 10:45:52;;;;;;;7.30;4.85;;;;;;;7.75;52.03;99086.11;1771565;80;20952;-73
2021/03/19 10:48:48;;;;;;;6.22;4.12;;;;;;;7.51;52.71;99085.00;1756168;81;20998;-73
2021/03/19 10:51:39;;;;;;;6.12;4.08;;;;;;;7.32;52.63;99082.17;1756110;81;20923;-73
2021/03/19 10:54:28;;;;;;;5.58;3.70;;;;;;;7.33;53.36;99081.06;1755585;81;21489;-73
2021/03/19 10:56:59;;;;;;;6.33;3.10;;;;;;;7.46;51.25;99080.23;1756135;81;21797;-74
2021/03/19 10:59:32;;;;;;;5.35;3.67;;;;;;;7.82;47.87;99075.56;1756090;81;21517;-73
2021/03/19 11:02:17;;;;;;;7.30;3.90;;;;;;;8.06;48.90;99078.56;1756088;81;20994;-73
2021/03/19 11:04:58;;;;;;;5.22;3.40;;;;;;;8.35;49.36;99073.47;1756088;81;20931;-75
2021/03/19 11:07:31;;;;;;;6.08;4.25;;;;;;;8.52;48.00;99075.50;1754809;81;20978;-73
2021/03/19 11:10:19;;;;;;;7.62;3.77;;;;;;;8.44;48.59;99081.17;1755583;81;22299;-73
2021/03/19 11:12:58;;;;;;;5.05;3.27;;;;;;;8.44;47.13;99077.63;1755642;81;21089;-74
2021/03/19 11:15:36;;;;;;;8.00;3.77;;;;;;;8.40;46.42;99077.44;1730073;81;21200;-74
2021/03/19 11:18:31;;;;;;;6.45;3.98;;;;;;;8.37;49.46;99080.80;1755751;81;21002;-73
2021/03/19 11:21:04;;;;;;;5.65;3.80;;;;;;;8.48;48.91;99078.05;1734687;82;20991;-73
2021/03/19 11:23:48;;;;;;;5.78;3.87;;;;;;;8.64;49.14;99078.47;1733319;82;21217;-74
2021/03/19 11:26:26;;;;;;;5.78;3.75;;;;;;;8.79;47.66;99073.12;1733227;82;21645;-73
2021/03/19 11:29:16;;;;;;;5.90;2.92;;;;;;;8.72;45.19;99070.02;1733256;82;20920;-73
2021/03/19 11:32:14;;;;;;;8.60;4.60;;;;;;;8.40;45.38;99070.60;1733105;82;21066;-73
2021/03/19 11:34:54;;;;;;;7.17;3.35;;;;;;;8.12;44.89;99071.27;1731128;82;21514;-73
2021/03/19 11:37:28;;;;;;;5.75;3.70;;;;;;;7.78;44.63;99073.75;1732404;82;21386;-73
2021/03/19 11:40:08;;;;;;;5.95;3.75;;;;;;;7.49;46.15;99075.52;1732755;82;21509;-73
2021/03/19 11:42:47;;;;;;;12.85;4.50;;;;;;;7.19;46.11;99076.42;1718164;82;21007;-73
2021/03/19 11:45:23;;;;;;;5.72;3.30;;;;;;;6.85;47.10;99068.67;1755796;80;21081;-72
2021/03/19 11:48:04;;;;;;;5.17;3.70;;;;;;;6.68;48.81;99066.28;1756385;81;20990;-73
2021/03/19 11:50:35;;;;;;;8.73;4.50;;;;;;;6.58;48.95;99072.73;1754944;81;21740;-72
2021/03/19 11:53:07;;;;;;;8.78;3.95;;;;;;;6.43;48.94;99071.09;1756271;81;21006;-72
2021/03/19 11:55:39;;;;;;;9.58;4.05;;;;;;;6.21;48.27;99073.68;1756463;81;20947;-73
2021/03/19 11:58:07;;;;;;;;;;;;;;;6.08;49.05;99075.80;1758933;81;20974;-72
2021/03/19 12:00:35;;;;;;;12.58;4.15;;;;;;;5.95;49.20;99075.45;1756448;81;20225;-73
2021/03/19 12:03:06;;;;;;;4.65;2.90;;;;;;;5.82;49.06;99081.62;1756274;81;21389;-73
2021/03/19 12:05:35;;;;;;;7.35;3.85;;;;;;;5.81;48.84;99081.36;1756350;81;20990;-73
2021/03/19 12:08:03;;;;;;;5.33;3.05;;;;;;;5.75;48.93;99080.40;1756295;81;21025;-73
2021/03/19 12:10:30;;;;;;;4.40;3.17;;;;;;;5.64;49.63;99088.71;1756386;81;20966;-72
2021/03/19 12:13:01;;;;;;;8.50;3.08;;;;;;;5.56;50.26;99087.20;1756316;81;21033;-72
2021/03/19 12:15:31;;;;;;;10.25;3.83;;;;;;;5.54;50.60;99091.58;1756358;81;21208;-72
2021/03/19 12:17:59;;;;;;;11.73;4.40;;;;;;;5.52;49.63;99087.53;1756317;81;21057;-72
2021/03/19 12:20:27;;;;;;;12.80;4.42;;;;;;;5.55;50.23;99093.20;1756305;81;20942;-72
2021/03/19 12:22:56;;;;;;;10.82;5.20;;;;;;;5.59;50.54;99092.06;1748135;81;20970;-71
2021/03/19 12:25:28;;;;;;;6.42;3.60;;;;;;;5.59;51.03;99094.23;1724359;83;21088;-73
2021/03/19 12:27:55;;;;;;;13.80;6.65;;;;;;;5.54;50.40;99090.77;1725086;83;21378;-73
2021/03/19 12:30:24;;;;;;;7.00;4.10;;;;;;;5.42;50.54;99091.20;1724892;83;20943;-73
2021/03/19 12:32:53;;;;;;;8.28;4.10;;;;;;;5.35;50.96;99096.74;1725103;83;21164;-73